Time;durP1;ratioP1;P1;durP2;ratioP2;P2;SDS_P1;SDS_P2;PMS_P1;PMS_P2;Temp;Humidity;BMP_temperature;BMP_pressure;BME280_temperature;BME280_humidity;BME280_pressure;Samples;Min_cycle;Max_cycle;Signal;HPM_P1;HPM_P2
2021/05/16 00:01:52;;;;;;;5.33;4.80;;;;;;;11.15;93.85;98241.28;5145954;22;20194;-81
2021/05/16 00:04:55;;;;;;;4.57;4.27;;;;;;;11.11;94.10;98245.53;5065605;22;20256;-80
2021/05/16 00:07:29;;;;;;;5.20;4.70;;;;;;;11.10;94.25;98242.06;5128355;22;20228;-80
2021/05/16 00:10:12;;;;;;;4.90;4.50;;;;;;;11.11;94.04;98245.53;5098451;28;20216;-80
2021/05/16 00:13:30;;;;;;;5.30;4.80;;;;;;;10.99;94.13;98229.63;4997996;28;20241;-82
2021/05/16 00:16:16;;;;;;;6.00;4.97;;;;;;;10.92;93.98;98220.97;5027481;23;20226;-82
2021/05/16 00:18:50;;;;;;;5.40;4.90;;;;;;;11.09;93.97;98251.16;5052046;28;20234;-81
2021/05/16 00:21:33;;;;;;;5.20;4.70;;;;;;;11.02;94.00;98246.00;5078568;28;20189;-80
2021/05/16 00:24:13;;;;;;;5.30;4.90;;;;;;;11.09;93.91;98251.16;5078638;28;20489;-82
2021/05/16 00:27:08;;;;;;;5.37;4.87;;;;;;;11.05;94.21;98255.41;5078264;28;20186;-82
2021/05/16 00:29:36;;;;;;;5.57;5.17;;;;;;;10.93;94.28;98247.53;5076576;28;20221;-82
2021/05/16 00:32:15;;;;;;;5.50;5.10;;;;;;;10.95;94.67;98256.13;5108023;22;20237;-80
2021/05/16 00:35:42;;;;;;;5.27;4.97;;;;;;;11.06;94.37;98272.31;5087959;22;20201;-82
2021/05/16 00:38:23;;;;;;;6.10;5.50;;;;;;;11.03;94.53;98284.34;5110969;23;20226;-80
2021/05/16 00:40:54;;;;;;;5.47;5.07;;;;;;;10.95;94.49;98274.91;5083147;22;20208;-82
2021/05/16 00:43:21;;;;;;;5.33;4.83;;;;;;;10.93;94.51;98268.16;5057457;28;20194;-82
2021/05/16 00:46:07;;;;;;;5.60;5.10;;;;;;;11.01;94.42;98273.06;5067854;22;20226;-82
2021/05/16 00:48:43;;;;;;;5.47;4.70;;;;;;;10.94;94.54;98275.13;5078511;28;20212;-82
2021/05/16 00:51:14;;;;;;;5.07;4.57;;;;;;;11.04;94.60;98289.44;5097539;28;20219;-80
2021/05/16 00:54:00;;;;;;;5.00;4.60;;;;;;;10.91;94.64;98281.84;5082139;28;20252;-82
2021/05/16 00:59:26;;;;;;;4.53;4.20;;;;;;;10.99;94.42;98312.72;4995584;28;20228;-82
2021/05/16 01:02:01;;;;;;;4.70;4.20;;;;;;;10.85;93.99;98306.94;4997110;28;20208;-81
2021/05/16 01:04:39;;;;;;;4.03;3.70;;;;;;;10.88;93.98;98308.31;4996543;28;20263;-83
2021/05/16 01:07:10;;;;;;;4.00;3.60;;;;;;;10.96;93.66;98305.97;4997368;28;20219;-80
2021/05/16 01:09:42;;;;;;;3.60;3.23;;;;;;;10.87;93.50;98307.50;5012055;28;20228;-82
2021/05/16 01:12:13;;;;;;;2.73;2.53;;;;;;;10.92;93.09;98312.91;4995953;28;20208;-80
2021/05/16 01:14:48;;;;;;;2.40;2.20;;;;;;;10.96;91.24;98308.66;5011759;28;20224;-81
2021/05/16 01:17:17;;;;;;;2.10;1.90;;;;;;;11.13;89.95;98308.56;5060428;23;20257;-82
2021/05/16 01:19:52;;;;;;;3.60;2.80;;;;;;;11.09;90.10;98310.13;5073035;28;20233;-83
2021/05/16 01:22:23;;;;;;;3.40;3.10;;;;;;;11.03;90.80;98319.16;5074804;28;20229;-82
2021/05/16 01:24:52;;;;;;;3.60;3.30;;;;;;;11.10;90.82;98324.34;5075262;28;20248;-83
2021/05/16 01:27:43;;;;;;;3.20;2.90;;;;;;;11.10;90.40;98324.34;5074502;28;20301;-83
2021/05/16 01:30:18;;;;;;;2.37;2.17;;;;;;;11.27;88.10;98325.81;5057498;28;20221;-80
2021/05/16 01:32:50;;;;;;;1.70;1.60;;;;;;;11.23;87.05;98318.56;5074299;28;20657;-82
2021/05/16 01:35:20;;;;;;;2.10;1.50;;;;;;;11.28;86.87;98329.31;5056436;28;20211;-82
2021/05/16 01:37:59;;;;;;;1.07;1.00;;;;;;;11.31;86.28;98328.81;5074985;28;20221;-83
2021/05/16 01:40:47;;;;;;;0.87;0.87;;;;;;;11.51;84.32;98331.66;5075462;28;20225;-82
2021/05/16 01:43:47;;;;;;;0.60;0.60;;;;;;;11.69;80.91;98333.13;5072148;28;20233;-82
2021/05/16 01:46:20;;;;;;;0.67;0.60;;;;;;;11.71;80.67;98347.88;5071502;28;20225;-83
2021/05/16 01:48:49;;;;;;;0.70;0.70;;;;;;;11.66;80.63;98355.91;5072711;28;20232;-82
2021/05/16 01:51:20;;;;;;;0.50;0.50;;;;;;;11.59;80.76;98360.69;5074566;28;20195;-83
2021/05/16 01:53:52;;;;;;;0.50;0.50;;;;;;;11.53;81.09;98353.66;5075570;28;20244;-81
2021/05/16 01:56:29;;;;;;;0.60;0.60;;;;;;;11.57;80.54;98352.06;5075427;28;20213;-82
2021/05/16 01:59:09;;;;;;;0.60;0.60;;;;;;;11.52;80.32;98340.50;5059763;23;20306;-81
2021/05/16 02:01:43;;;;;;;0.37;0.37;;;;;;;11.67;79.12;98367.44;5079840;23;20213;-76
2021/05/16 02:04:15;;;;;;;0.47;0.40;;;;;;;11.63;77.99;98374.38;5040959;28;20227;-81
2021/05/16 02:06:47;;;;;;;1.07;0.47;;;;;;;11.46;78.39;98339.66;5092162;22;20288;-82
2021/05/16 02:09:19;;;;;;;0.30;0.30;;;;;;;11.70;77.74;98370.44;5094929;28;20185;-81
2021/05/16 02:11:59;;;;;;;0.90;0.30;;;;;;;11.71;75.52;98377.41;5096029;28;20224;-82
2021/05/16 02:14:34;;;;;;;0.30;0.30;;;;;;;11.84;73.89;98365.47;5078105;28;20228;-82
2021/05/16 02:17:06;;;;;;;0.30;0.27;;;;;;;11.82;74.66;98379.13;5077034;28;20231;-82
2021/05/16 02:19:35;;;;;;;0.20;0.20;;;;;;;11.79;73.95;98365.44;5075779;28;20235;-81
2021/05/16 02:22:16;;;;;;;0.23;0.23;;;;;;;11.77;73.58;98364.84;5094566;28;20234;-82
2021/05/16 02:24:53;;;;;;;0.20;0.20;;;;;;;11.73;73.78;98375.31;5094757;28;20208;-82
2021/05/16 02:27:26;;;;;;;0.10;0.10;;;;;;;11.81;72.00;98374.00;5095206;28;20223;-81
2021/05/16 02:30:01;;;;;;;0.23;0.23;;;;;;;11.72;71.53;98360.25;5078578;28;20235;-82
2021/05/16 02:32:40;;;;;;;0.20;0.20;;;;;;;11.81;71.55;98380.19;5095591;28;20225;-81
2021/05/16 02:35:22;;;;;;;0.20;0.20;;;;;;;11.75;72.09;98377.75;5036999;28;20233;-80
2021/05/16 02:37:55;;;;;;;0.20;0.20;;;;;;;11.71;72.09;98373.94;5042284;28;20222;-80
2021/05/16 02:40:23;;;;;;;0.20;0.20;;;;;;;11.77;72.07;98376.41;5040445;28;20230;-80
2021/05/16 02:42:53;;;;;;;0.77;0.20;;;;;;;11.95;71.10;98391.28;5023323;28;20214;-80
2021/05/16 02:45:21;;;;;;;1.00;0.20;;;;;;;11.87;70.28;98373.81;5006283;28;20226;-79
2021/05/16 02:47:51;;;;;;;0.10;0.10;;;;;;;12.01;70.04;98394.81;5035346;28;20225;-79
2021/05/16 02:50:22;;;;;;;1.63;0.20;;;;;;;12.04;70.64;98391.63;5019675;28;20230;-79
2021/05/16 02:52:56;;;;;;;0.30;0.10;;;;;;;12.08;70.11;98406.16;5021714;28;20237;-80
2021/05/16 02:55:27;;;;;;;0.60;0.20;;;;;;;11.96;70.72;98408.19;5021347;28;20305;-81
2021/05/16 02:57:54;;;;;;;0.20;0.20;;;;;;;12.01;69.99;98408.25;5006918;28;20233;-80
2021/05/16 03:00:26;;;;;;;0.53;0.20;;;;;;;11.85;70.85;98413.50;5040270;28;20233;-80
2021/05/16 03:02:54;;;;;;;0.50;0.10;;;;;;;11.74;72.88;98416.38;5039540;28;20221;-80
2021/05/16 03:05:25;;;;;;;0.90;0.13;;;;;;;11.53;74.41;98420.72;5005658;28;20234;-79
2021/05/16 03:07:52;;;;;;;0.20;0.20;;;;;;;11.47;74.62;98429.78;5024683;28;20230;-80
2021/05/16 03:10:19;;;;;;;0.40;0.30;;;;;;;11.53;75.62;98430.63;5027406;28;20229;-80
2021/05/16 03:12:46;;;;;;;0.43;0.20;;;;;;;11.41;74.90;98417.38;5025568;28;20226;-80
2021/05/16 03:15:16;;;;;;;0.77;0.20;;;;;;;11.33;75.89;98431.25;5026495;28;20206;-80
2021/05/16 03:17:45;;;;;;;0.37;0.20;;;;;;;11.24;76.08;98433.59;5046991;23;20210;-80
2021/05/16 03:20:15;;;;;;;0.10;0.10;;;;;;;11.23;76.72;98456.09;5028640;28;20264;-81
2021/05/16 03:22:45;;;;;;;0.10;0.10;;;;;;;11.18;77.04;98444.50;5028371;28;20222;-80
2021/05/16 03:25:14;;;;;;;0.83;0.30;;;;;;;11.17;76.68;98445.56;5041917;28;20252;-80
2021/05/16 03:27:42;;;;;;;0.77;0.20;;;;;;;11.16;77.43;98457.34;5025781;28;20271;-80
2021/05/16 03:30:10;;;;;;;0.50;0.20;;;;;;;11.11;77.52;98443.88;5011181;28;20264;-80
2021/05/16 03:32:40;;;;;;;0.27;0.20;;;;;;;11.14;78.05;98459.47;5042171;28;20232;-81
2021/05/16 03:35:12;;;;;;;0.87;0.20;;;;;;;11.15;77.93;98459.19;5057373;22;20233;-80
2021/05/16 03:37:39;;;;;;;0.30;0.30;;;;;;;11.22;77.44;98461.69;5072828;23;20507;-80
2021/05/16 03:40:08;;;;;;;0.10;0.10;;;;;;;11.21;77.32;98470.78;5060602;23;20580;-80
2021/05/16 03:42:35;;;;;;;0.37;0.20;;;;;;;11.18;77.55;98463.25;5062470;28;20229;-80
2021/05/16 03:45:09;;;;;;;0.40;0.20;;;;;;;11.11;77.92;98465.31;5058491;22;20443;-80
2021/05/16 03:47:39;;;;;;;0.10;0.10;;;;;;;11.11;77.32;98455.41;5042468;28;20253;-80
2021/05/16 03:50:09;;;;;;;1.40;0.20;;;;;;;11.14;77.50;98475.56;5042243;28;20551;-80
2021/05/16 03:52:36;;;;;;;0.73;0.30;;;;;;;11.06;78.57;98465.28;5043977;28;20233;-81
2021/05/16 03:55:05;;;;;;;0.93;0.20;;;;;;;11.06;78.90;98470.66;5054335;23;20279;-80
2021/05/16 03:57:31;;;;;;;0.40;0.30;;;;;;;11.01;78.77;98460.69;5030114;28;20229;-83
2021/05/16 03:59:58;;;;;;;0.50;0.27;;;;;;;10.96;79.01;98472.13;5080577;22;20220;-81
2021/05/16 04:02:28;;;;;;;0.20;0.20;;;;;;;10.94;80.04;98476.13;5030271;28;20236;-81
2021/05/16 04:04:59;;;;;;;0.20;0.20;;;;;;;10.82;81.93;98465.53;5063500;28;20224;-81
2021/05/16 04:07:27;;;;;;;0.83;0.30;;;;;;;10.69;82.19;98455.16;5062614;28;20228;-81
2021/05/16 04:09:54;;;;;;;0.20;0.20;;;;;;;10.67;82.63;98465.34;5060702;28;20213;-81
2021/05/16 04:12:22;;;;;;;1.30;0.67;;;;;;;10.65;83.41;98472.00;5043037;28;20233;-81
2021/05/16 04:14:52;;;;;;;0.43;0.30;;;;;;;10.77;82.35;98478.88;5060031;28;20628;-81
2021/05/16 04:17:19;;;;;;;0.67;0.33;;;;;;;10.65;83.01;98467.44;5065026;28;20236;-81
2021/05/16 04:19:47;;;;;;;0.40;0.40;;;;;;;10.68;83.55;98485.72;5045446;28;20228;-81
2021/05/16 04:22:14;;;;;;;0.50;0.30;;;;;;;10.58;84.89;98482.91;5046857;28;20225;-81
2021/05/16 04:24:44;;;;;;;0.30;0.20;;;;;;;10.54;85.68;98473.75;5062932;28;20229;-81
2021/05/16 04:27:11;;;;;;;0.27;0.20;;;;;;;10.56;85.34;98469.75;5048617;28;20539;-80
2021/05/16 04:29:43;;;;;;;0.73;0.40;;;;;;;10.60;85.64;98465.50;5046497;28;20226;-81
2021/05/16 04:32:11;;;;;;;0.90;0.40;;;;;;;10.57;86.08;98459.84;5045905;28;20229;-81
2021/05/16 04:34:38;;;;;;;0.40;0.30;;;;;;;10.62;86.29;98453.75;5066938;28;20728;-81
2021/05/16 04:37:06;;;;;;;0.30;0.30;;;;;;;10.73;85.91;98461.66;5047770;28;20241;-82
2021/05/16 04:39:35;;;;;;;1.20;0.40;;;;;;;10.87;85.97;98475.50;5054879;28;20285;-81
2021/05/16 04:42:04;;;;;;;0.67;0.30;;;;;;;10.95;85.86;98464.34;5065772;28;20218;-81
2021/05/16 04:44:33;;;;;;;1.10;0.60;;;;;;;10.93;85.88;98459.22;5045857;28;20256;-80
2021/05/16 04:46:59;;;;;;;1.67;0.50;;;;;;;10.96;86.32;98453.34;5065453;28;20229;-81
2021/05/16 04:49:27;;;;;;;0.20;0.20;;;;;;;11.02;86.02;98457.72;5064225;28;20217;-81
2021/05/16 04:52:00;;;;;;;1.00;0.43;;;;;;;11.14;86.25;98467.50;5048727;28;20221;-80
2021/05/16 04:54:29;;;;;;;0.80;0.30;;;;;;;11.20;86.69;98471.88;5048381;28;20312;-81
2021/05/16 04:56:57;;;;;;;0.40;0.37;;;;;;;11.33;86.56;98477.66;5044077;28;20538;-81
2021/05/16 04:59:26;;;;;;;0.43;0.30;;;;;;;11.31;85.01;98469.03;5046938;28;20223;-80
2021/05/16 05:01:55;;;;;;;0.60;0.30;;;;;;;11.36;84.44;98474.47;5030771;28;20233;-81
2021/05/16 05:04:48;;;;;;;0.57;0.20;;;;;;;11.54;83.40;98475.16;5045984;28;20232;-81
2021/05/16 05:07:22;;;;;;;1.27;0.30;;;;;;;11.63;83.61;98471.78;5067157;28;20237;-81
2021/05/16 05:09:52;;;;;;;0.30;0.30;;;;;;;11.90;81.31;98474.44;5066574;28;20214;-80
2021/05/16 05:12:22;;;;;;;0.20;0.20;;;;;;;12.06;76.87;98464.66;5024057;28;20576;-81
2021/05/16 05:14:50;;;;;;;0.30;0.30;;;;;;;12.27;74.39;98475.28;5024758;28;20240;-82
2021/05/16 05:17:17;;;;;;;0.27;0.20;;;;;;;12.35;73.24;98460.56;5065017;28;20236;-80
2021/05/16 05:19:48;;;;;;;0.27;0.27;;;;;;;12.53;73.19;98468.19;5067958;28;20236;-80
2021/05/16 05:22:17;;;;;;;0.60;0.30;;;;;;;12.62;72.00;98461.25;5091514;22;20278;-81
2021/05/16 05:24:53;;;;;;;0.23;0.23;;;;;;;13.01;69.38;98483.22;5071287;23;20230;-81
2021/05/16 05:27:27;;;;;;;0.60;0.40;;;;;;;13.19;68.72;98482.78;5045202;28;20229;-80
2021/05/16 05:30:04;;;;;;;0.33;0.30;;;;;;;13.27;68.34;98481.44;5045350;28;20285;-81
2021/05/16 05:32:34;;;;;;;0.50;0.30;;;;;;;13.50;67.81;98480.16;5048590;28;20297;-80
2021/05/16 05:35:05;;;;;;;0.50;0.33;;;;;;;13.75;65.76;98474.03;5042859;28;20209;-80
2021/05/16 05:37:35;;;;;;;0.40;0.40;;;;;;;14.22;64.41;98477.25;5061147;28;20241;-80
2021/05/16 05:40:13;;;;;;;0.50;0.40;;;;;;;14.32;64.78;98488.03;5028907;28;20206;-81
2021/05/16 05:42:43;;;;;;;0.27;0.27;;;;;;;14.57;61.87;98481.00;5028089;28;20259;-81
2021/05/16 05:45:12;;;;;;;1.43;0.40;;;;;;;14.90;62.36;98474.97;5056205;28;20217;-81
2021/05/16 05:47:41;;;;;;;1.10;0.50;;;;;;;15.27;61.75;98486.16;5015825;28;20274;-81
2021/05/16 05:50:08;;;;;;;1.50;0.50;;;;;;;15.37;59.77;98490.69;5013936;28;20311;-81
2021/05/16 05:52:35;;;;;;;1.30;0.40;;;;;;;15.38;60.95;98492.31;5031137;28;20222;-86
2021/05/16 05:55:02;;;;;;;0.47;0.37;;;;;;;15.55;59.57;98489.25;5050842;28;20285;-86
2021/05/16 05:57:29;;;;;;;0.50;0.30;;;;;;;15.41;57.68;98494.44;5018307;28;20274;-80
2021/05/16 05:59:56;;;;;;;0.63;0.40;;;;;;;15.27;57.55;98493.44;5014074;28;20311;-81
2021/05/16 06:02:22;;;;;;;0.77;0.30;;;;;;;15.01;56.58;98486.53;5044161;28;20246;-81
2021/05/16 06:04:50;;;;;;;0.30;0.20;;;;;;;15.09;57.14;98491.34;5034855;28;20235;-88
2021/05/16 06:07:17;;;;;;;0.67;0.20;;;;;;;15.02;57.45;98491.66;5021048;28;20232;-87
2021/05/16 06:09:44;;;;;;;1.30;0.40;;;;;;;15.07;58.37;98502.41;5015030;28;20231;-81
2021/05/16 06:12:11;;;;;;;0.60;0.40;;;;;;;15.16;56.17;98506.19;5004904;28;20229;-80
2021/05/16 06:14:38;;;;;;;0.40;0.27;;;;;;;15.15;55.56;98504.56;5014084;28;20740;-80
2021/05/16 06:17:05;;;;;;;0.40;0.30;;;;;;;15.47;55.83;98504.13;5023485;28;20231;-82
2021/05/16 06:19:32;;;;;;;0.47;0.33;;;;;;;15.85;55.64;98527.69;5033525;28;20274;-79
2021/05/16 06:21:59;;;;;;;1.20;0.30;;;;;;;15.72;52.85;98505.91;5025337;28;20248;-80
2021/05/16 06:24:27;;;;;;;0.50;0.30;;;;;;;15.88;53.80;98515.50;5020444;28;20238;-86
2021/05/16 06:26:53;;;;;;;1.23;0.33;;;;;;;16.18;52.89;98517.19;5056559;28;20227;-80
2021/05/16 06:29:20;;;;;;;0.27;0.27;;;;;;;16.20;52.30;98515.00;5056936;28;20654;-86
2021/05/16 06:31:47;;;;;;;0.30;0.23;;;;;;;16.27;51.72;98521.72;5058737;28;20216;-80
2021/05/16 06:34:14;;;;;;;0.20;0.20;;;;;;;16.23;52.30;98526.06;5076662;28;20251;-84
2021/05/16 06:36:40;;;;;;;1.33;0.20;;;;;;;16.33;52.78;98527.06;5043960;28;20217;-85
2021/05/16 06:39:08;;;;;;;0.60;0.30;;;;;;;16.41;51.45;98537.28;5077062;28;20533;-80
2021/05/16 06:41:34;;;;;;;0.87;0.20;;;;;;;16.28;50.80;98530.63;5058448;28;20317;-82
2021/05/16 06:44:01;;;;;;;0.47;0.30;;;;;;;16.18;51.43;98528.00;5073354;28;20236;-80
2021/05/16 06:46:28;;;;;;;1.83;0.30;;;;;;;16.01;50.97;98516.75;5074343;28;20225;-80
2021/05/16 06:48:56;;;;;;;0.40;0.40;;;;;;;16.10;51.12;98523.19;5060163;28;20247;-81
2021/05/16 06:51:23;;;;;;;1.70;0.30;;;;;;;16.20;50.94;98529.31;5060490;28;20232;-79
2021/05/16 06:53:55;;;;;;;0.20;0.20;;;;;;;16.25;50.69;98520.38;5040446;28;20229;-80
2021/05/16 06:56:22;;;;;;;0.50;0.40;;;;;;;16.44;49.76;98512.38;5039924;28;20238;-80
2021/05/16 06:58:48;;;;;;;0.87;0.60;;;;;;;16.46;50.47;98521.00;5058558;28;20244;-80
2021/05/16 07:01:15;;;;;;;1.63;0.50;;;;;;;16.56;49.92;98510.09;5076796;28;20236;-85
2021/05/16 07:03:44;;;;;;;0.20;0.20;;;;;;;16.66;48.24;98521.63;5059920;28;20225;-87
2021/05/16 07:06:11;;;;;;;0.53;0.30;;;;;;;16.72;48.62;98525.91;5043109;28;20228;-82
2021/05/16 07:08:37;;;;;;;0.80;0.30;;;;;;;16.88;48.02;98533.88;5076448;28;20244;-82
2021/05/16 07:11:05;;;;;;;0.60;0.30;;;;;;;16.70;47.58;98527.31;5060088;28;20245;-81
2021/05/16 07:13:32;;;;;;;1.07;0.40;;;;;;;16.89;48.25;98530.09;5059819;28;20667;-87
2021/05/16 07:15:59;;;;;;;1.20;0.30;;;;;;;16.92;47.46;98519.50;5043149;28;20236;-80
2021/05/16 07:18:29;;;;;;;0.90;0.50;;;;;;;16.67;47.99;98538.69;5060227;28;20224;-81
2021/05/16 07:20:56;;;;;;;0.93;0.50;;;;;;;16.69;48.17;98528.38;5043022;28;20575;-82
2021/05/16 07:23:23;;;;;;;0.93;0.40;;;;;;;16.84;47.54;98524.72;5043053;28;20245;-85
2021/05/16 07:25:50;;;;;;;2.17;0.57;;;;;;;16.80;47.49;98532.59;5076442;28;20585;-80
2021/05/16 07:28:17;;;;;;;2.80;0.70;;;;;;;16.85;47.52;98526.31;5059634;28;20221;-80
2021/05/16 07:30:43;;;;;;;1.83;0.60;;;;;;;16.75;45.87;98529.94;5059690;28;20229;-86
2021/05/16 07:33:10;;;;;;;2.63;0.63;;;;;;;16.71;45.16;98509.97;5059675;28;20273;-83
2021/05/16 07:35:40;;;;;;;2.17;0.67;;;;;;;16.75;46.13;98529.16;5060142;28;20648;-83
2021/05/16 07:38:07;;;;;;;2.83;0.50;;;;;;;16.93;45.77;98529.22;5059198;28;20224;-77
2021/05/16 07:40:37;;;;;;;1.97;0.80;;;;;;;16.87;46.48;98521.44;5076084;28;21035;-79
2021/05/16 07:43:04;;;;;;;1.77;0.50;;;;;;;16.98;46.91;98517.53;5075503;28;20248;-86
2021/05/16 07:45:32;;;;;;;3.30;0.80;;;;;;;17.14;47.25;98530.59;5076050;28;20235;-82
2021/05/16 07:47:58;;;;;;;2.40;0.70;;;;;;;17.05;45.38;98531.50;5044032;28;20233;-84
2021/05/16 07:50:25;;;;;;;3.53;0.90;;;;;;;17.19;44.36;98537.84;5058189;28;20221;-84
2021/05/16 07:52:52;;;;;;;1.47;0.60;;;;;;;17.06;44.31;98522.31;5057168;28;20215;-86
2021/05/16 07:55:19;;;;;;;4.30;0.77;;;;;;;17.14;44.97;98548.72;5075965;28;20225;-81
2021/05/16 07:57:48;;;;;;;1.57;0.70;;;;;;;17.16;44.68;98554.69;5058774;28;20227;-78
2021/05/16 08:00:15;;;;;;;2.27;0.70;;;;;;;17.05;45.29;98540.44;5042173;28;20229;-86
2021/05/16 08:02:42;;;;;;;1.67;0.60;;;;;;;16.76;44.84;98538.84;5075523;28;20240;-85
2021/05/16 08:05:11;;;;;;;1.03;0.50;;;;;;;17.09;46.33;98543.38;5072524;28;20232;-86
2021/05/16 08:07:38;;;;;;;2.53;0.60;;;;;;;17.25;45.44;98544.81;5055988;28;20229;-92
2021/05/16 08:10:06;;;;;;;2.17;0.70;;;;;;;17.39;45.77;98558.47;5075782;28;20225;-85
2021/05/16 08:12:33;;;;;;;1.67;0.63;;;;;;;17.49;44.67;98544.81;5076351;28;20568;-81
2021/05/16 08:15:00;;;;;;;1.20;0.67;;;;;;;17.50;43.91;98557.22;5040517;28;20637;-80
2021/05/16 08:17:27;;;;;;;2.37;0.73;;;;;;;17.30;44.17;98560.19;5038273;28;20274;-79
2021/05/16 08:19:54;;;;;;;1.57;0.50;;;;;;;17.17;44.66;98562.47;5054544;28;20237;-77
2021/05/16 08:22:21;;;;;;;1.40;0.50;;;;;;;17.27;44.09;98561.56;5041467;28;20237;-78
2021/05/16 08:24:48;;;;;;;1.37;0.50;;;;;;;17.48;44.38;98556.72;5057865;28;20282;-77
2021/05/16 08:27:14;;;;;;;2.23;0.60;;;;;;;17.54;43.58;98569.09;5075143;28;20612;-81
2021/05/16 08:29:41;;;;;;;1.43;0.60;;;;;;;17.64;43.36;98568.22;5075688;28;20656;-80
2021/05/16 08:32:09;;;;;;;1.53;0.60;;;;;;;17.78;42.81;98578.00;5057696;28;20228;-84
2021/05/16 08:34:36;;;;;;;3.30;0.60;;;;;;;17.56;43.17;98570.41;5074661;28;20224;-81
2021/05/16 08:37:04;;;;;;;1.47;0.60;;;;;;;17.84;43.19;98566.00;5057771;28;20242;-80
2021/05/16 08:39:31;;;;;;;1.57;0.60;;;;;;;17.83;43.69;98577.94;5058123;28;20232;-77
2021/05/16 08:41:58;;;;;;;1.53;0.63;;;;;;;17.86;43.03;98582.78;5058100;28;20229;-78
2021/05/16 08:44:31;;;;;;;3.20;2.33;;;;;;;17.99;43.04;98594.81;5057652;28;20240;-79
2021/05/16 08:46:59;;;;;;;1.87;1.20;;;;;;;17.98;42.72;98585.88;5075296;28;20652;-83
2021/05/16 08:49:26;;;;;;;2.97;0.70;;;;;;;18.03;43.17;98590.41;5058107;28;20220;-83
2021/05/16 08:51:53;;;;;;;0.90;0.53;;;;;;;18.22;42.91;98572.22;5057930;28;20225;-83
2021/05/16 08:54:22;;;;;;;1.47;0.53;;;;;;;18.25;42.08;98573.53;5056745;28;20312;-85
2021/05/16 08:56:51;;;;;;;1.60;0.60;;;;;;;18.21;43.01;98567.09;5074126;28;20227;-84
2021/05/16 08:59:20;;;;;;;2.23;0.70;;;;;;;18.36;41.75;98566.88;5057787;28;20499;-78
2021/05/16 09:01:58;;;;;;;2.73;0.67;;;;;;;18.19;42.57;98583.69;5058002;28;20304;-82
2021/05/16 09:04:37;;;;;;;1.60;0.67;;;;;;;18.24;42.72;98572.75;5067453;28;20233;-80
2021/05/16 09:07:05;;;;;;;2.80;0.60;;;;;;;18.17;42.88;98595.91;5037518;28;20225;-85
2021/05/16 09:09:37;;;;;;;2.67;0.70;;;;;;;18.23;42.71;98573.84;5044187;28;20275;-84
2021/05/16 09:12:09;;;;;;;2.07;0.63;;;;;;;18.19;42.72;98597.22;5057478;28;20255;-81
2021/05/16 09:14:42;;;;;;;1.67;0.73;;;;;;;18.16;42.37;98588.84;5051372;28;20229;-79
2021/05/16 09:17:26;;;;;;;1.40;0.60;;;;;;;18.11;43.18;98587.03;5055505;28;20233;-83
2021/05/16 09:20:15;;;;;;;2.07;0.80;;;;;;;18.11;42.43;98584.31;5045672;28;20499;-83
2021/05/16 09:22:48;;;;;;;1.23;0.60;;;;;;;17.86;44.25;98573.84;5040807;28;20228;-79
2021/05/16 09:25:19;;;;;;;1.13;0.50;;;;;;;17.94;45.01;98582.13;5073772;28;20232;-79
2021/05/16 09:27:54;;;;;;;2.43;0.80;;;;;;;18.09;43.88;98581.09;5074196;28;20239;-83
2021/05/16 09:30:21;;;;;;;5.13;4.17;;;;;;;18.23;43.10;98584.69;5020789;28;20224;-79
2021/05/16 09:33:01;;;;;;;2.00;0.70;;;;;;;18.25;41.01;98587.91;5054195;28;20225;-80
2021/05/16 09:35:39;;;;;;;2.50;0.70;;;;;;;18.51;40.39;98579.38;5061501;28;20229;-86
2021/05/16 09:38:22;;;;;;;0.83;0.53;;;;;;;18.66;40.03;98584.59;5053776;28;20221;-87
2021/05/16 09:40:54;;;;;;;1.97;0.70;;;;;;;18.74;40.48;98570.34;5041087;28;20225;-88
2021/05/16 09:43:26;;;;;;;2.67;0.60;;;;;;;18.97;40.69;98571.28;5074883;28;20228;-87
2021/05/16 09:46:05;;;;;;;1.43;0.70;;;;;;;19.14;37.36;98572.28;5057520;28;20639;-88
2021/05/16 09:48:42;;;;;;;1.87;0.70;;;;;;;19.23;38.02;98554.19;5040502;28;20231;-88
2021/05/16 09:51:16;;;;;;;1.50;0.60;;;;;;;19.33;39.32;98581.16;5057264;28;20231;-88
2021/05/16 09:53:55;;;;;;;1.83;0.60;;;;;;;19.49;38.55;98568.13;5040560;28;20255;-83
2021/05/16 09:56:36;;;;;;;1.50;0.47;;;;;;;19.32;37.15;98555.09;5058824;28;20279;-85
2021/05/16 09:59:08;;;;;;;1.27;0.50;;;;;;;19.42;39.01;98550.56;5070170;28;20226;-80
2021/05/16 10:01:37;;;;;;;1.60;0.63;;;;;;;19.46;38.44;98565.97;5040224;28;20651;-80
2021/05/16 10:04:06;;;;;;;1.90;0.60;;;;;;;19.47;36.74;98553.22;5039927;28;20670;-80
2021/05/16 10:06:34;;;;;;;1.80;0.60;;;;;;;19.47;37.40;98547.78;5074873;28;20572;-84
2021/05/16 10:09:02;;;;;;;0.93;0.60;;;;;;;19.58;37.73;98546.47;5060924;28;20628;-85
2021/05/16 10:11:31;;;;;;;0.93;0.70;;;;;;;19.71;36.84;98559.22;5060571;28;20236;-80
2021/05/16 10:14:10;;;;;;;3.20;0.60;;;;;;;19.70;37.21;98544.00;5059966;28;20301;-83
2021/05/16 10:16:41;;;;;;;1.53;0.57;;;;;;;19.57;38.55;98550.28;5077284;28;20224;-81
2021/05/16 10:19:15;;;;;;;2.50;0.70;;;;;;;19.70;39.26;98554.88;5044151;28;20241;-79
2021/05/16 10:21:42;;;;;;;1.17;0.70;;;;;;;19.65;38.05;98555.81;5060684;28;20225;-80
2021/05/16 10:24:14;;;;;;;1.60;0.70;;;;;;;19.70;37.71;98538.59;5076680;28;20228;-85
2021/05/16 10:26:42;;;;;;;1.60;0.80;;;;;;;19.98;38.41;98552.91;5046462;28;20229;-85
2021/05/16 10:29:10;;;;;;;4.07;0.80;;;;;;;20.02;37.80;98543.84;5040745;28;20226;-84
2021/05/16 10:31:47;;;;;;;2.53;0.70;;;;;;;19.89;36.40;98561.00;5053346;28;20221;-86
2021/05/16 10:34:23;;;;;;;1.33;0.80;;;;;;;19.87;38.13;98559.69;5059980;28;20530;-84
2021/05/16 10:37:00;;;;;;;1.63;0.60;;;;;;;19.79;37.90;98548.44;5046706;28;20229;-81
2021/05/16 10:39:39;;;;;;;2.17;0.60;;;;;;;20.07;38.20;98561.94;5023933;28;20538;-79
2021/05/16 10:42:16;;;;;;;2.33;0.70;;;;;;;19.80;38.99;98549.22;5072814;28;20220;-85
2021/05/16 10:44:55;;;;;;;2.30;0.73;;;;;;;19.79;38.64;98544.91;5060340;28;20280;-80
2021/05/16 10:47:41;;;;;;;2.10;0.60;;;;;;;19.89;37.42;98539.25;5043274;28;20229;-84
2021/05/16 10:50:12;;;;;;;1.47;0.50;;;;;;;19.84;38.76;98517.63;5039810;28;20677;-86
2021/05/16 10:52:39;;;;;;;1.70;0.57;;;;;;;20.11;37.77;98541.97;5076336;28;20225;-83
2021/05/16 10:55:07;;;;;;;2.60;0.73;;;;;;;19.98;37.41;98534.69;5060373;28;20226;-80
2021/05/16 10:57:36;;;;;;;0.77;0.60;;;;;;;19.98;38.02;98540.13;5059567;28;20708;-86
2021/05/16 11:00:21;;;;;;;1.00;0.60;;;;;;;20.23;37.72;98547.69;5039819;28;20240;-86
2021/05/16 11:03:09;;;;;;;1.30;0.43;;;;;;;20.18;37.71;98539.66;5058169;28;20556;-81
2021/05/16 11:05:43;;;;;;;2.07;0.57;;;;;;;20.44;37.88;98537.13;5076738;28;20534;-83
2021/05/16 11:08:31;;;;;;;1.43;0.50;;;;;;;20.43;37.29;98532.03;5039729;28;20254;-84
2021/05/16 11:11:00;;;;;;;1.27;0.70;;;;;;;20.34;36.45;98521.09;5011977;28;20222;-85
2021/05/16 11:13:32;;;;;;;1.63;0.60;;;;;;;20.41;37.83;98518.72;5059975;28;20230;-83
2021/05/16 11:16:09;;;;;;;0.80;0.50;;;;;;;20.50;37.77;98522.31;5059725;28;20270;-85
2021/05/16 11:18:36;;;;;;;1.47;0.70;;;;;;;20.70;37.29;98518.25;5058666;28;20233;-82
2021/05/16 11:21:07;;;;;;;1.83;0.70;;;;;;;20.74;37.18;98507.53;5059534;28;20222;-80
2021/05/16 11:23:36;;;;;;;3.30;0.50;;;;;;;21.30;35.66;98515.00;5076153;28;20225;-83
2021/05/16 11:26:13;;;;;;;1.10;0.50;;;;;;;21.30;35.02;98510.34;5039162;28;20671;-80
2021/05/16 11:28:49;;;;;;;2.73;0.70;;;;;;;21.44;35.15;98504.78;5036205;28;20231;-80
2021/05/16 11:31:21;;;;;;;0.73;0.57;;;;;;;21.12;33.18;98503.22;5037296;28;20227;-80
2021/05/16 11:33:53;;;;;;;1.50;0.57;;;;;;;20.82;34.37;98496.69;5019858;28;20232;-80
2021/05/16 11:36:28;;;;;;;2.17;0.80;;;;;;;21.09;34.92;98484.78;5019373;28;20243;-80
2021/05/16 11:38:56;;;;;;;1.50;0.60;;;;;;;21.08;37.10;98491.38;5052489;28;20230;-83
2021/05/16 11:41:34;;;;;;;2.40;0.63;;;;;;;21.09;35.78;98476.59;5036242;28;20226;-81
2021/05/16 11:44:03;;;;;;;1.13;0.77;;;;;;;21.12;36.05;98476.00;5036690;28;20242;-79
2021/05/16 11:46:36;;;;;;;2.20;0.70;;;;;;;21.14;35.23;98468.31;5035652;28;20224;-80
2021/05/16 11:49:03;;;;;;;1.60;0.67;;;;;;;21.36;34.65;98475.59;5019362;28;20231;-83
2021/05/16 11:51:32;;;;;;;1.03;0.50;;;;;;;21.58;35.81;98475.47;5035725;28;20231;-80
2021/05/16 11:54:06;;;;;;;2.77;0.87;;;;;;;21.49;34.36;98474.66;5035758;28;20323;-84
2021/05/16 11:56:39;;;;;;;1.67;0.60;;;;;;;21.51;33.72;98473.22;5051717;28;20236;-80
2021/05/16 11:59:06;;;;;;;2.97;0.93;;;;;;;21.38;33.66;98465.19;5035587;28;20238;-80